sensor_id;sensor_type;location;lat;lon;timestamp;temperature;humidity
20524;DHT22;10420;48.542;12.270;2023-01-01T00:02:07;6.10;99.90
20524;DHT22;10420;48.542;12.270;2023-01-01T00:07:08;6.10;99.90
20524;DHT22;10420;48.542;12.270;2023-01-01T00:12:09;6.10;99.90
20524;DHT22;10420;48.542;12.270;2023-01-01T00:17:09;6.10;99.90
20524;DHT22;10420;48.542;12.270;2023-01-01T00:22:10;6.10;99.90
20524;DHT22;10420;48.542;12.270;2023-01-01T00:27:11;6.10;99.90
20524;DHT22;10420;48.542;12.270;2023-01-01T00:32:11;6.10;99.90
20524;DHT22;10420;48.542;12.270;2023-01-01T00:37:12;6.10;99.90
20524;DHT22;10420;48.542;12.270;2023-01-01T00:42:14;6.10;99.90
20524;DHT22;10420;48.542;12.270;2023-01-01T00:47:14;6.00;99.90
20524;DHT22;10420;48.542;12.270;2023-01-01T00:52:15;6.10;99.90
20524;DHT22;10420;48.542;12.270;2023-01-01T00:57:16;6.10;99.90
20524;DHT22;10420;48.542;12.270;2023-01-01T01:02:16;6.20;99.90
20524;DHT22;10420;48.542;12.270;2023-01-01T01:07:17;6.30;99.90
20524;DHT22;10420;48.542;12.270;2023-01-01T01:12:18;6.30;99.90
20524;DHT22;10420;48.542;12.270;2023-01-01T01:17:18;6.10;99.90
20524;DHT22;10420;48.542;12.270;2023-01-01T01:22:19;5.90;99.90
20524;DHT22;10420;48.542;12.270;2023-01-01T01:27:19;6.00;99.90
20524;DHT22;10420;48.542;12.270;2023-01-01T01:32:20;5.90;99.90
20524;DHT22;10420;48.542;12.270;2023-01-01T01:37:21;6.00;99.90
20524;DHT22;10420;48.542;12.270;2023-01-01T01:42:21;6.00;99.90
20524;DHT22;10420;48.542;12.270;2023-01-01T01:47:45;6.00;99.90
20524;DHT22;10420;48.542;12.270;2023-01-01T01:53:01;5.80;99.90
20524;DHT22;10420;48.542;12.270;2023-01-01T01:58:03;5.70;99.90
20524;DHT22;10420;48.542;12.270;2023-01-01T02:03:11;5.60;99.90
20524;DHT22;10420;48.542;12.270;2023-01-01T02:08:14;5.70;99.90
20524;DHT22;10420;48.542;12.270;2023-01-01T02:13:15;5.50;99.90
20524;DHT22;10420;48.542;12.270;2023-01-01T02:18:31;5.30;99.90
20524;DHT22;10420;48.542;12.270;2023-01-01T02:24:04;5.30;99.90
20524;DHT22;10420;48.542;12.270;2023-01-01T02:34:40;5.10;99.90
20524;DHT22;10420;48.542;12.270;2023-01-01T02:39:50;5.10;99.90
20524;DHT22;10420;48.542;12.270;2023-01-01T02:44:54;5.00;99.90
20524;DHT22;10420;48.542;12.270;2023-01-01T02:50:02;5.10;99.90
20524;DHT22;10420;48.542;12.270;2023-01-01T02:55:10;4.90;99.90
20524;DHT22;10420;48.542;12.270;2023-01-01T03:00:17;4.90;99.90
20524;DHT22;10420;48.542;12.270;2023-01-01T03:11:15;4.80;99.90
20524;DHT22;10420;48.542;12.270;2023-01-01T03:16:22;4.70;99.90
20524;DHT22;10420;48.542;12.270;2023-01-01T03:21:24;4.80;99.90
20524;DHT22;10420;48.542;12.270;2023-01-01T03:26:25;4.70;99.90
20524;DHT22;10420;48.542;12.270;2023-01-01T03:31:27;4.70;99.90
20524;DHT22;10420;48.542;12.270;2023-01-01T03:36:31;4.80;99.90
20524;DHT22;10420;48.542;12.270;2023-01-01T03:41:38;4.80;99.90
20524;DHT22;10420;48.542;12.270;2023-01-01T03:46:40;4.70;99.90
20524;DHT22;10420;48.542;12.270;2023-01-01T03:57:23;4.70;99.90
20524;DHT22;10420;48.542;12.270;2023-01-01T04:02:33;4.60;99.90
20524;DHT22;10420;48.542;12.270;2023-01-01T04:07:35;4.50;99.90
20524;DHT22;10420;48.542;12.270;2023-01-01T04:12:37;4.60;99.90
20524;DHT22;10420;48.542;12.270;2023-01-01T04:17:37;4.50;99.90
20524;DHT22;10420;48.542;12.270;2023-01-01T04:22:38;4.60;99.90
20524;DHT22;10420;48.542;12.270;2023-01-01T04:27:40;4.60;99.90
20524;DHT22;10420;48.542;12.270;2023-01-01T04:32:41;4.60;99.90
20524;DHT22;10420;48.542;12.270;2023-01-01T04:37:43;4.70;99.90
20524;DHT22;10420;48.542;12.270;2023-01-01T04:42:43;4.70;99.90
20524;DHT22;10420;48.542;12.270;2023-01-01T04:47:44;4.70;99.90
20524;DHT22;10420;48.542;12.270;2023-01-01T04:52:45;4.70;99.90
20524;DHT22;10420;48.542;12.270;2023-01-01T04:57:50;4.80;99.90
20524;DHT22;10420;48.542;12.270;2023-01-01T05:02:51;5.00;99.90
20524;DHT22;10420;48.542;12.270;2023-01-01T05:07:51;4.90;99.90
20524;DHT22;10420;48.542;12.270;2023-01-01T05:12:52;4.90;99.90
20524;DHT22;10420;48.542;12.270;2023-01-01T05:17:53;5.10;99.90
20524;DHT22;10420;48.542;12.270;2023-01-01T05:22:53;5.10;99.90
20524;DHT22;10420;48.542;12.270;2023-01-01T05:27:54;5.20;99.90
20524;DHT22;10420;48.542;12.270;2023-01-01T05:32:55;5.20;99.90
20524;DHT22;10420;48.542;12.270;2023-01-01T05:37:55;5.30;99.90
20524;DHT22;10420;48.542;12.270;2023-01-01T05:42:56;5.60;99.90
20524;DHT22;10420;48.542;12.270;2023-01-01T05:47:57;5.70;99.90
20524;DHT22;10420;48.542;12.270;2023-01-01T05:52:57;5.60;99.90
20524;DHT22;10420;48.542;12.270;2023-01-01T05:57:58;5.60;99.90
20524;DHT22;10420;48.542;12.270;2023-01-01T06:02:58;5.60;99.90
20524;DHT22;10420;48.542;12.270;2023-01-01T06:07:59;5.40;99.90
20524;DHT22;10420;48.542;12.270;2023-01-01T06:13:00;5.40;99.90
20524;DHT22;10420;48.542;12.270;2023-01-01T06:18:00;5.30;99.90
20524;DHT22;10420;48.542;12.270;2023-01-01T06:23:01;5.30;99.90
20524;DHT22;10420;48.542;12.270;2023-01-01T06:28:01;5.10;99.90
20524;DHT22;10420;48.542;12.270;2023-01-01T06:33:03;5.10;99.90
20524;DHT22;10420;48.542;12.270;2023-01-01T06:38:04;5.10;99.90
20524;DHT22;10420;48.542;12.270;2023-01-01T06:43:04;5.00;99.90
20524;DHT22;10420;48.542;12.270;2023-01-01T06:48:05;4.90;99.90
20524;DHT22;10420;48.542;12.270;2023-01-01T06:53:05;5.00;99.90
20524;DHT22;10420;48.542;12.270;2023-01-01T06:58:06;4.90;99.90
20524;DHT22;10420;48.542;12.270;2023-01-01T07:03:09;4.90;99.90
20524;DHT22;10420;48.542;12.270;2023-01-01T07:08:10;5.00;99.90
20524;DHT22;10420;48.542;12.270;2023-01-01T07:13:11;5.00;99.90
20524;DHT22;10420;48.542;12.270;2023-01-01T07:18:11;5.00;99.90
20524;DHT22;10420;48.542;12.270;2023-01-01T07:23:12;4.90;99.90
20524;DHT22;10420;48.542;12.270;2023-01-01T07:28:12;4.90;99.90
20524;DHT22;10420;48.542;12.270;2023-01-01T07:33:16;4.80;99.90
20524;DHT22;10420;48.542;12.270;2023-01-01T07:38:17;4.80;99.90
20524;DHT22;10420;48.542;12.270;2023-01-01T07:43:17;4.80;99.90
20524;DHT22;10420;48.542;12.270;2023-01-01T07:48:18;5.00;99.90
20524;DHT22;10420;48.542;12.270;2023-01-01T07:53:19;5.00;99.90
20524;DHT22;10420;48.542;12.270;2023-01-01T07:58:19;5.20;99.90
20524;DHT22;10420;48.542;12.270;2023-01-01T08:03:22;5.30;99.90
20524;DHT22;10420;48.542;12.270;2023-01-01T08:08:22;5.70;99.90
20524;DHT22;10420;48.542;12.270;2023-01-01T08:13:23;6.00;99.90
20524;DHT22;10420;48.542;12.270;2023-01-01T08:18:24;6.40;99.90
20524;DHT22;10420;48.542;12.270;2023-01-01T08:23:25;6.80;99.90
20524;DHT22;10420;48.542;12.270;2023-01-01T08:28:26;6.90;99.90
20524;DHT22;10420;48.542;12.270;2023-01-01T08:33:27;7.10;99.90
20524;DHT22;10420;48.542;12.270;2023-01-01T08:38:28;7.30;99.90
20524;DHT22;10420;48.542;12.270;2023-01-01T08:43:28;7.50;99.90
20524;DHT22;10420;48.542;12.270;2023-01-01T08:48:29;7.90;99.90
20524;DHT22;10420;48.542;12.270;2023-01-01T08:53:31;7.90;99.90
20524;DHT22;10420;48.542;12.270;2023-01-01T08:58:34;8.20;99.90
20524;DHT22;10420;48.542;12.270;2023-01-01T09:03:35;8.30;99.90
20524;DHT22;10420;48.542;12.270;2023-01-01T09:08:36;8.70;99.90
20524;DHT22;10420;48.542;12.270;2023-01-01T09:13:36;8.60;99.90
20524;DHT22;10420;48.542;12.270;2023-01-01T09:18:37;8.50;99.90
20524;DHT22;10420;48.542;12.270;2023-01-01T09:23:37;8.60;99.90
20524;DHT22;10420;48.542;12.270;2023-01-01T09:28:38;8.80;99.90
20524;DHT22;10420;48.542;12.270;2023-01-01T09:33:39;8.90;99.90
20524;DHT22;10420;48.542;12.270;2023-01-01T09:38:39;9.10;99.90
20524;DHT22;10420;48.542;12.270;2023-01-01T09:49:27;15.80;99.90
20524;DHT22;10420;48.542;12.270;2023-01-01T09:54:31;18.40;99.90
20524;DHT22;10420;48.542;12.270;2023-01-01T09:59:32;20.50;99.90
20524;DHT22;10420;48.542;12.270;2023-01-01T10:10:03;18.70;99.90
20524;DHT22;10420;48.542;12.270;2023-01-01T10:15:23;19.00;99.90
20524;DHT22;10420;48.542;12.270;2023-01-01T10:20:38;17.40;99.90
20524;DHT22;10420;48.542;12.270;2023-01-01T10:25:42;15.50;99.90
20524;DHT22;10420;48.542;12.270;2023-01-01T10:30:43;16.40;99.90
20524;DHT22;10420;48.542;12.270;2023-01-01T10:35:49;15.60;99.90
20524;DHT22;10420;48.542;12.270;2023-01-01T10:41:07;15.10;99.90
20524;DHT22;10420;48.542;12.270;2023-01-01T10:46:12;15.30;99.90
20524;DHT22;10420;48.542;12.270;2023-01-01T10:51:15;15.80;99.90
20524;DHT22;10420;48.542;12.270;2023-01-01T10:56:19;16.30;99.90
20524;DHT22;10420;48.542;12.270;2023-01-01T11:01:23;16.90;99.90
20524;DHT22;10420;48.542;12.270;2023-01-01T11:11:44;16.20;99.90
20524;DHT22;10420;48.542;12.270;2023-01-01T11:16:46;17.30;99.90
20524;DHT22;10420;48.542;12.270;2023-01-01T11:21:47;17.80;99.90
20524;DHT22;10420;48.542;12.270;2023-01-01T11:26:49;16.50;99.90
20524;DHT22;10420;48.542;12.270;2023-01-01T11:31:50;16.20;99.90
20524;DHT22;10420;48.542;12.270;2023-01-01T11:36:52;15.60;99.90
20524;DHT22;10420;48.542;12.270;2023-01-01T11:41:55;15.00;99.90
20524;DHT22;10420;48.542;12.270;2023-01-01T11:46:57;14.50;99.90
20524;DHT22;10420;48.542;12.270;2023-01-01T11:51:58;14.40;99.90
20524;DHT22;10420;48.542;12.270;2023-01-01T11:57:06;15.20;99.90
20524;DHT22;10420;48.542;12.270;2023-01-01T12:02:14;15.40;99.90
20524;DHT22;10420;48.542;12.270;2023-01-01T12:07:20;14.00;99.90
20524;DHT22;10420;48.542;12.270;2023-01-01T12:12:29;13.80;99.90
20524;DHT22;10420;48.542;12.270;2023-01-01T12:17:42;13.70;99.90
20524;DHT22;10420;48.542;12.270;2023-01-01T12:22:43;13.60;99.90
20524;DHT22;10420;48.542;12.270;2023-01-01T12:38:53;13.80;99.90
20524;DHT22;10420;48.542;12.270;2023-01-01T12:44:17;13.60;99.90
20524;DHT22;10420;48.542;12.270;2023-01-01T12:55:24;13.50;99.90
20524;DHT22;10420;48.542;12.270;2023-01-01T13:00:36;13.10;99.90
20524;DHT22;10420;48.542;12.270;2023-01-01T13:05:48;13.20;99.90
20524;DHT22;10420;48.542;12.270;2023-01-01T13:10:53;12.90;99.90
20524;DHT22;10420;48.542;12.270;2023-01-01T13:15:55;12.80;99.90
20524;DHT22;10420;48.542;12.270;2023-01-01T13:36:38;12.10;99.90
20524;DHT22;10420;48.542;12.270;2023-01-01T13:41:41;12.40;99.90
20524;DHT22;10420;48.542;12.270;2023-01-01T13:52:10;12.20;99.90
20524;DHT22;10420;48.542;12.270;2023-01-01T14:02:51;11.70;99.90
20524;DHT22;10420;48.542;12.270;2023-01-01T14:07:58;12.00;99.90
20524;DHT22;10420;48.542;12.270;2023-01-01T14:18:11;11.70;99.90
20524;DHT22;10420;48.542;12.270;2023-01-01T14:23:29;11.80;99.90
20524;DHT22;10420;48.542;12.270;2023-01-01T14:28:33;11.80;99.90
20524;DHT22;10420;48.542;12.270;2023-01-01T14:33:34;11.40;99.90
20524;DHT22;10420;48.542;12.270;2023-01-01T14:38:41;11.00;99.90
20524;DHT22;10420;48.542;12.270;2023-01-01T14:43:44;10.90;99.90
20524;DHT22;10420;48.542;12.270;2023-01-01T14:48:48;10.70;99.90
20524;DHT22;10420;48.542;12.270;2023-01-01T14:53:51;10.70;99.90
20524;DHT22;10420;48.542;12.270;2023-01-01T14:58:55;10.50;99.90
20524;DHT22;10420;48.542;12.270;2023-01-01T15:04:05;10.10;99.90
20524;DHT22;10420;48.542;12.270;2023-01-01T15:09:15;9.90;99.90
20524;DHT22;10420;48.542;12.270;2023-01-01T15:14:37;9.90;99.90
20524;DHT22;10420;48.542;12.270;2023-01-01T15:19:40;9.60;99.90
20524;DHT22;10420;48.542;12.270;2023-01-01T15:24:43;9.30;99.90
20524;DHT22;10420;48.542;12.270;2023-01-01T15:29:45;9.30;99.90
20524;DHT22;10420;48.542;12.270;2023-01-01T15:34:49;9.40;99.90
20524;DHT22;10420;48.542;12.270;2023-01-01T15:39:52;9.00;99.90
20524;DHT22;10420;48.542;12.270;2023-01-01T15:44:53;8.70;99.90
20524;DHT22;10420;48.542;12.270;2023-01-01T15:55:32;8.30;99.90
20524;DHT22;10420;48.542;12.270;2023-01-01T16:00:37;8.10;99.90
20524;DHT22;10420;48.542;12.270;2023-01-01T16:05:45;8.00;99.90
20524;DHT22;10420;48.542;12.270;2023-01-01T16:10:47;7.90;99.90
20524;DHT22;10420;48.542;12.270;2023-01-01T16:15:59;7.70;99.90
20524;DHT22;10420;48.542;12.270;2023-01-01T16:21:02;7.50;99.90
20524;DHT22;10420;48.542;12.270;2023-01-01T16:26:03;7.50;99.90
20524;DHT22;10420;48.542;12.270;2023-01-01T16:31:04;7.40;99.90
20524;DHT22;10420;48.542;12.270;2023-01-01T16:36:05;7.30;99.90
20524;DHT22;10420;48.542;12.270;2023-01-01T16:41:08;7.30;99.90
20524;DHT22;10420;48.542;12.270;2023-01-01T16:46:11;7.30;99.90
20524;DHT22;10420;48.542;12.270;2023-01-01T16:51:17;7.40;99.90
20524;DHT22;10420;48.542;12.270;2023-01-01T16:56:18;7.20;99.90
20524;DHT22;10420;48.542;12.270;2023-01-01T17:01:20;7.00;99.90
20524;DHT22;10420;48.542;12.270;2023-01-01T17:06:20;7.30;99.90
20524;DHT22;10420;48.542;12.270;2023-01-01T17:11:21;7.00;99.90
20524;DHT22;10420;48.542;12.270;2023-01-01T17:16:24;7.00;99.90
20524;DHT22;10420;48.542;12.270;2023-01-01T17:21:25;7.10;99.90
20524;DHT22;10420;48.542;12.270;2023-01-01T17:26:25;7.20;99.90
20524;DHT22;10420;48.542;12.270;2023-01-01T17:31:26;8.10;99.90
20524;DHT22;10420;48.542;12.270;2023-01-01T17:36:28;8.30;99.90
20524;DHT22;10420;48.542;12.270;2023-01-01T17:41:29;8.10;99.90
20524;DHT22;10420;48.542;12.270;2023-01-01T17:46:30;8.70;99.90
20524;DHT22;10420;48.542;12.270;2023-01-01T17:51:32;8.50;99.90
20524;DHT22;10420;48.542;12.270;2023-01-01T17:56:32;8.30;99.90
20524;DHT22;10420;48.542;12.270;2023-01-01T18:01:33;8.20;99.90
20524;DHT22;10420;48.542;12.270;2023-01-01T18:06:37;8.30;99.90
20524;DHT22;10420;48.542;12.270;2023-01-01T18:11:38;8.10;99.90
20524;DHT22;10420;48.542;12.270;2023-01-01T18:16:42;7.90;99.90
20524;DHT22;10420;48.542;12.270;2023-01-01T18:21:43;7.60;99.90
20524;DHT22;10420;48.542;12.270;2023-01-01T18:26:43;7.60;99.90
20524;DHT22;10420;48.542;12.270;2023-01-01T18:31:44;7.30;99.90
20524;DHT22;10420;48.542;12.270;2023-01-01T18:36:45;7.00;99.90
20524;DHT22;10420;48.542;12.270;2023-01-01T18:42:25;7.20;99.90
20524;DHT22;10420;48.542;12.270;2023-01-01T18:47:33;6.80;99.90
20524;DHT22;10420;48.542;12.270;2023-01-01T18:52:34;6.70;99.90
20524;DHT22;10420;48.542;12.270;2023-01-01T18:57:35;6.60;99.90
20524;DHT22;10420;48.542;12.270;2023-01-01T19:02:38;6.50;99.90
20524;DHT22;10420;48.542;12.270;2023-01-01T19:07:38;6.40;99.90
20524;DHT22;10420;48.542;12.270;2023-01-01T19:12:39;6.40;99.90
20524;DHT22;10420;48.542;12.270;2023-01-01T19:17:40;6.30;99.90
20524;DHT22;10420;48.542;12.270;2023-01-01T19:22:40;6.10;99.90
20524;DHT22;10420;48.542;12.270;2023-01-01T19:27:41;6.00;99.90
20524;DHT22;10420;48.542;12.270;2023-01-01T19:32:42;6.00;99.90
20524;DHT22;10420;48.542;12.270;2023-01-01T19:37:45;5.80;99.90
20524;DHT22;10420;48.542;12.270;2023-01-01T19:42:46;5.80;99.90
20524;DHT22;10420;48.542;12.270;2023-01-01T19:47:46;5.70;99.90
20524;DHT22;10420;48.542;12.270;2023-01-01T19:52:47;5.80;99.90
20524;DHT22;10420;48.542;12.270;2023-01-01T19:57:48;5.80;99.90
20524;DHT22;10420;48.542;12.270;2023-01-01T20:02:48;5.80;99.90
20524;DHT22;10420;48.542;12.270;2023-01-01T20:07:49;5.80;99.90
20524;DHT22;10420;48.542;12.270;2023-01-01T20:12:50;5.70;99.90
20524;DHT22;10420;48.542;12.270;2023-01-01T20:17:51;5.70;99.90
20524;DHT22;10420;48.542;12.270;2023-01-01T20:22:51;5.70;99.90
20524;DHT22;10420;48.542;12.270;2023-01-01T20:27:52;5.60;99.90
20524;DHT22;10420;48.542;12.270;2023-01-01T20:33:21;5.70;99.90
20524;DHT22;10420;48.542;12.270;2023-01-01T20:38:22;6.10;99.90
20524;DHT22;10420;48.542;12.270;2023-01-01T20:43:23;6.00;99.90
20524;DHT22;10420;48.542;12.270;2023-01-01T20:48:23;6.80;99.90
20524;DHT22;10420;48.542;12.270;2023-01-01T20:53:24;6.40;99.90
20524;DHT22;10420;48.542;12.270;2023-01-01T20:58:25;6.60;99.90
20524;DHT22;10420;48.542;12.270;2023-01-01T21:03:25;6.90;99.90
20524;DHT22;10420;48.542;12.270;2023-01-01T21:08:26;7.00;99.90
20524;DHT22;10420;48.542;12.270;2023-01-01T21:13:27;6.90;99.90
20524;DHT22;10420;48.542;12.270;2023-01-01T21:18:27;6.80;99.90
20524;DHT22;10420;48.542;12.270;2023-01-01T21:23:29;6.80;99.90
20524;DHT22;10420;48.542;12.270;2023-01-01T21:28:32;7.40;99.90
20524;DHT22;10420;48.542;12.270;2023-01-01T21:33:34;7.90;99.90
20524;DHT22;10420;48.542;12.270;2023-01-01T21:38:34;8.20;99.90
20524;DHT22;10420;48.542;12.270;2023-01-01T21:43:39;8.50;99.90
20524;DHT22;10420;48.542;12.270;2023-01-01T21:49:04;8.50;99.90
20524;DHT22;10420;48.542;12.270;2023-01-01T22:09:45;6.80;99.90
20524;DHT22;10420;48.542;12.270;2023-01-01T22:14:48;6.90;99.90
20524;DHT22;10420;48.542;12.270;2023-01-01T22:19:49;6.80;99.90
20524;DHT22;10420;48.542;12.270;2023-01-01T22:24:56;6.40;99.90
20524;DHT22;10420;48.542;12.270;2023-01-01T22:35:17;6.00;99.90
20524;DHT22;10420;48.542;12.270;2023-01-01T22:40:25;5.90;99.90
20524;DHT22;10420;48.542;12.270;2023-01-01T22:45:28;5.60;99.90
20524;DHT22;10420;48.542;12.270;2023-01-01T22:50:29;5.60;99.90
20524;DHT22;10420;48.542;12.270;2023-01-01T22:55:30;5.50;99.90
20524;DHT22;10420;48.542;12.270;2023-01-01T23:00:31;5.50;99.90
20524;DHT22;10420;48.542;12.270;2023-01-01T23:05:32;5.40;99.90
20524;DHT22;10420;48.542;12.270;2023-01-01T23:10:32;5.40;99.90
20524;DHT22;10420;48.542;12.270;2023-01-01T23:15:33;5.20;99.90
20524;DHT22;10420;48.542;12.270;2023-01-01T23:20:52;5.10;99.90
20524;DHT22;10420;48.542;12.270;2023-01-01T23:25:53;5.10;99.90
20524;DHT22;10420;48.542;12.270;2023-01-01T23:30:56;4.90;99.90
20524;DHT22;10420;48.542;12.270;2023-01-01T23:35:58;4.80;99.90
20524;DHT22;10420;48.542;12.270;2023-01-01T23:40:58;4.80;99.90
20524;DHT22;10420;48.542;12.270;2023-01-01T23:46:00;4.80;99.90
20524;DHT22;10420;48.542;12.270;2023-01-01T23:51:01;4.70;99.90
20524;DHT22;10420;48.542;12.270;2023-01-01T23:56:02;4.70;99.90
